sensor_id;sensor_type;location;lat;lon;timestamp;temperature;humidity
13322;DHT22;6730;46.248;6.930;2022-10-22T00:01:55;14.30;99.90
13322;DHT22;6730;46.248;6.930;2022-10-22T00:04:21;14.10;99.90
13322;DHT22;6730;46.248;6.930;2022-10-22T00:06:47;14.40;99.90
13322;DHT22;6730;46.248;6.930;2022-10-22T00:09:14;14.40;99.90
13322;DHT22;6730;46.248;6.930;2022-10-22T00:11:46;14.10;99.90
13322;DHT22;6730;46.248;6.930;2022-10-22T00:14:12;14.00;99.90
13322;DHT22;6730;46.248;6.930;2022-10-22T00:16:37;13.90;99.90
13322;DHT22;6730;46.248;6.930;2022-10-22T00:19:03;13.90;99.90
13322;DHT22;6730;46.248;6.930;2022-10-22T00:21:29;13.80;99.90
13322;DHT22;6730;46.248;6.930;2022-10-22T00:23:55;13.40;99.90
13322;DHT22;6730;46.248;6.930;2022-10-22T00:26:21;13.10;99.90
13322;DHT22;6730;46.248;6.930;2022-10-22T00:28:47;12.90;99.90
13322;DHT22;6730;46.248;6.930;2022-10-22T00:31:13;12.80;99.90
13322;DHT22;6730;46.248;6.930;2022-10-22T00:33:40;12.80;99.90
13322;DHT22;6730;46.248;6.930;2022-10-22T00:36:06;13.10;99.90
13322;DHT22;6730;46.248;6.930;2022-10-22T00:38:33;13.30;99.90
13322;DHT22;6730;46.248;6.930;2022-10-22T00:40:58;13.40;99.90
13322;DHT22;6730;46.248;6.930;2022-10-22T00:43:25;13.50;99.90
13322;DHT22;6730;46.248;6.930;2022-10-22T00:45:51;13.30;99.90
13322;DHT22;6730;46.248;6.930;2022-10-22T00:48:29;13.30;99.90
13322;DHT22;6730;46.248;6.930;2022-10-22T00:51:03;13.50;99.90
13322;DHT22;6730;46.248;6.930;2022-10-22T00:53:40;13.50;99.90
13322;DHT22;6730;46.248;6.930;2022-10-22T00:56:10;13.50;99.90
13322;DHT22;6730;46.248;6.930;2022-10-22T00:58:48;13.40;99.90
13322;DHT22;6730;46.248;6.930;2022-10-22T01:01:17;13.50;99.90
13322;DHT22;6730;46.248;6.930;2022-10-22T01:03:46;13.50;99.90
13322;DHT22;6730;46.248;6.930;2022-10-22T01:06:20;13.40;99.90
13322;DHT22;6730;46.248;6.930;2022-10-22T01:09:03;13.00;99.90
13322;DHT22;6730;46.248;6.930;2022-10-22T01:25:09;12.50;99.90
13322;DHT22;6730;46.248;6.930;2022-10-22T01:27:47;12.40;99.90
13322;DHT22;6730;46.248;6.930;2022-10-22T01:30:27;12.50;99.90
13322;DHT22;6730;46.248;6.930;2022-10-22T01:32:56;12.50;99.90
13322;DHT22;6730;46.248;6.930;2022-10-22T01:35:36;12.80;99.90
13322;DHT22;6730;46.248;6.930;2022-10-22T01:38:06;12.90;99.90
13322;DHT22;6730;46.248;6.930;2022-10-22T01:40:51;12.60;99.90
13322;DHT22;6730;46.248;6.930;2022-10-22T01:43:18;12.70;99.90
13322;DHT22;6730;46.248;6.930;2022-10-22T01:45:50;12.60;99.90
13322;DHT22;6730;46.248;6.930;2022-10-22T01:48:57;12.60;99.90
13322;DHT22;6730;46.248;6.930;2022-10-22T01:51:51;12.80;99.90
13322;DHT22;6730;46.248;6.930;2022-10-22T01:57:18;12.40;99.90
13322;DHT22;6730;46.248;6.930;2022-10-22T02:00:05;12.20;99.90
13322;DHT22;6730;46.248;6.930;2022-10-22T02:03:04;12.10;99.90
13322;DHT22;6730;46.248;6.930;2022-10-22T02:05:42;12.00;99.90
13322;DHT22;6730;46.248;6.930;2022-10-22T02:08:16;12.00;99.90
13322;DHT22;6730;46.248;6.930;2022-10-22T02:10:47;12.00;99.90
13322;DHT22;6730;46.248;6.930;2022-10-22T02:13:34;12.10;99.90
13322;DHT22;6730;46.248;6.930;2022-10-22T02:16:03;12.20;99.90
13322;DHT22;6730;46.248;6.930;2022-10-22T02:18:53;12.40;99.90
13322;DHT22;6730;46.248;6.930;2022-10-22T02:21:19;12.60;99.90
13322;DHT22;6730;46.248;6.930;2022-10-22T02:23:45;12.60;99.90
13322;DHT22;6730;46.248;6.930;2022-10-22T02:26:21;12.50;99.90
13322;DHT22;6730;46.248;6.930;2022-10-22T02:28:58;12.40;99.90
13322;DHT22;6730;46.248;6.930;2022-10-22T02:31:32;12.60;99.90
13322;DHT22;6730;46.248;6.930;2022-10-22T02:34:02;12.20;99.90
13322;DHT22;6730;46.248;6.930;2022-10-22T02:36:29;11.90;99.90
13322;DHT22;6730;46.248;6.930;2022-10-22T02:39:07;12.00;99.90
13322;DHT22;6730;46.248;6.930;2022-10-22T02:41:54;12.30;99.90
13322;DHT22;6730;46.248;6.930;2022-10-22T02:44:22;12.60;99.90
13322;DHT22;6730;46.248;6.930;2022-10-22T02:46:49;12.70;99.90
13322;DHT22;6730;46.248;6.930;2022-10-22T02:49:15;12.80;99.90
13322;DHT22;6730;46.248;6.930;2022-10-22T02:51:41;12.70;99.90
13322;DHT22;6730;46.248;6.930;2022-10-22T02:54:06;12.70;99.90
13322;DHT22;6730;46.248;6.930;2022-10-22T02:56:32;12.60;99.90
13322;DHT22;6730;46.248;6.930;2022-10-22T02:58:58;12.60;99.90
13322;DHT22;6730;46.248;6.930;2022-10-22T03:01:24;12.70;99.90
13322;DHT22;6730;46.248;6.930;2022-10-22T03:03:52;12.60;99.90
13322;DHT22;6730;46.248;6.930;2022-10-22T03:06:18;12.50;99.90
13322;DHT22;6730;46.248;6.930;2022-10-22T03:08:44;12.50;99.90
13322;DHT22;6730;46.248;6.930;2022-10-22T03:11:09;12.50;99.90
13322;DHT22;6730;46.248;6.930;2022-10-22T03:13:35;12.50;99.90
13322;DHT22;6730;46.248;6.930;2022-10-22T03:16:01;12.50;99.90
13322;DHT22;6730;46.248;6.930;2022-10-22T03:18:27;12.50;99.90
13322;DHT22;6730;46.248;6.930;2022-10-22T03:21:29;12.60;99.90
13322;DHT22;6730;46.248;6.930;2022-10-22T03:23:57;12.60;99.90
13322;DHT22;6730;46.248;6.930;2022-10-22T03:26:24;12.60;99.90
13322;DHT22;6730;46.248;6.930;2022-10-22T03:28:50;12.70;99.90
13322;DHT22;6730;46.248;6.930;2022-10-22T03:31:16;12.70;99.90
13322;DHT22;6730;46.248;6.930;2022-10-22T03:33:41;12.70;99.90
13322;DHT22;6730;46.248;6.930;2022-10-22T03:36:07;12.60;99.90
13322;DHT22;6730;46.248;6.930;2022-10-22T03:38:35;12.20;99.90
13322;DHT22;6730;46.248;6.930;2022-10-22T03:41:01;12.20;99.90
13322;DHT22;6730;46.248;6.930;2022-10-22T03:43:27;12.60;99.90
13322;DHT22;6730;46.248;6.930;2022-10-22T03:45:53;12.70;99.90
13322;DHT22;6730;46.248;6.930;2022-10-22T03:48:18;12.80;99.90
13322;DHT22;6730;46.248;6.930;2022-10-22T03:50:44;12.90;99.90
13322;DHT22;6730;46.248;6.930;2022-10-22T03:53:10;12.90;99.90
13322;DHT22;6730;46.248;6.930;2022-10-22T03:55:36;12.80;99.90
13322;DHT22;6730;46.248;6.930;2022-10-22T03:58:04;12.80;99.90
13322;DHT22;6730;46.248;6.930;2022-10-22T04:00:30;12.90;99.90
13322;DHT22;6730;46.248;6.930;2022-10-22T04:02:55;12.60;99.90
13322;DHT22;6730;46.248;6.930;2022-10-22T04:05:22;12.50;99.90
13322;DHT22;6730;46.248;6.930;2022-10-22T04:07:48;12.40;99.90
13322;DHT22;6730;46.248;6.930;2022-10-22T04:10:13;12.60;99.90
13322;DHT22;6730;46.248;6.930;2022-10-22T04:12:39;12.70;99.90
13322;DHT22;6730;46.248;6.930;2022-10-22T04:15:05;12.60;99.90
13322;DHT22;6730;46.248;6.930;2022-10-22T04:17:35;12.80;99.90
13322;DHT22;6730;46.248;6.930;2022-10-22T04:20:02;12.70;99.90
13322;DHT22;6730;46.248;6.930;2022-10-22T04:22:28;12.70;99.90
13322;DHT22;6730;46.248;6.930;2022-10-22T04:24:53;12.60;99.90
13322;DHT22;6730;46.248;6.930;2022-10-22T04:27:19;12.40;99.90
13322;DHT22;6730;46.248;6.930;2022-10-22T04:29:45;12.60;99.90
13322;DHT22;6730;46.248;6.930;2022-10-22T04:32:10;12.60;99.90
13322;DHT22;6730;46.248;6.930;2022-10-22T04:34:36;12.70;99.90
13322;DHT22;6730;46.248;6.930;2022-10-22T04:37:02;12.70;99.90
13322;DHT22;6730;46.248;6.930;2022-10-22T04:39:29;12.60;99.90
13322;DHT22;6730;46.248;6.930;2022-10-22T04:41:55;12.70;99.90
13322;DHT22;6730;46.248;6.930;2022-10-22T04:44:21;12.80;99.90
13322;DHT22;6730;46.248;6.930;2022-10-22T04:46:46;12.70;99.90
13322;DHT22;6730;46.248;6.930;2022-10-22T04:49:12;12.60;99.90
13322;DHT22;6730;46.248;6.930;2022-10-22T04:51:38;12.30;99.90
13322;DHT22;6730;46.248;6.930;2022-10-22T04:54:04;12.50;99.90
13322;DHT22;6730;46.248;6.930;2022-10-22T04:56:31;12.40;99.90
13322;DHT22;6730;46.248;6.930;2022-10-22T04:59:05;12.60;99.90
13322;DHT22;6730;46.248;6.930;2022-10-22T05:01:33;12.50;99.90
13322;DHT22;6730;46.248;6.930;2022-10-22T05:04:01;12.30;99.90
13322;DHT22;6730;46.248;6.930;2022-10-22T05:06:29;12.30;99.90
13322;DHT22;6730;46.248;6.930;2022-10-22T05:08:58;12.30;99.90
13322;DHT22;6730;46.248;6.930;2022-10-22T05:11:26;12.30;99.90
13322;DHT22;6730;46.248;6.930;2022-10-22T05:13:57;12.40;99.90
13322;DHT22;6730;46.248;6.930;2022-10-22T05:16:24;12.30;99.90
13322;DHT22;6730;46.248;6.930;2022-10-22T05:18:50;12.10;99.90
13322;DHT22;6730;46.248;6.930;2022-10-22T05:21:18;12.30;99.90
13322;DHT22;6730;46.248;6.930;2022-10-22T05:23:45;12.40;99.90
13322;DHT22;6730;46.248;6.930;2022-10-22T05:26:13;12.50;99.90
13322;DHT22;6730;46.248;6.930;2022-10-22T05:28:39;12.50;99.90
13322;DHT22;6730;46.248;6.930;2022-10-22T05:31:06;12.60;99.90
13322;DHT22;6730;46.248;6.930;2022-10-22T05:33:33;12.50;99.90
13322;DHT22;6730;46.248;6.930;2022-10-22T05:36:00;12.20;99.90
13322;DHT22;6730;46.248;6.930;2022-10-22T05:38:26;12.40;99.90
13322;DHT22;6730;46.248;6.930;2022-10-22T05:41:01;12.30;99.90
13322;DHT22;6730;46.248;6.930;2022-10-22T05:43:27;12.00;99.90
13322;DHT22;6730;46.248;6.930;2022-10-22T05:45:53;11.80;99.90
13322;DHT22;6730;46.248;6.930;2022-10-22T05:48:19;11.70;99.90
13322;DHT22;6730;46.248;6.930;2022-10-22T05:50:44;11.80;99.90
13322;DHT22;6730;46.248;6.930;2022-10-22T05:53:16;11.80;99.90
13322;DHT22;6730;46.248;6.930;2022-10-22T05:55:42;12.00;99.90
13322;DHT22;6730;46.248;6.930;2022-10-22T05:58:09;11.90;99.90
13322;DHT22;6730;46.248;6.930;2022-10-22T06:00:35;11.90;99.90
13322;DHT22;6730;46.248;6.930;2022-10-22T06:03:00;12.10;99.90
13322;DHT22;6730;46.248;6.930;2022-10-22T06:05:26;12.20;99.90
13322;DHT22;6730;46.248;6.930;2022-10-22T06:07:52;12.30;99.90
13322;DHT22;6730;46.248;6.930;2022-10-22T06:10:19;12.40;99.90
13322;DHT22;6730;46.248;6.930;2022-10-22T06:12:46;12.30;99.90
13322;DHT22;6730;46.248;6.930;2022-10-22T06:15:14;12.40;99.90
13322;DHT22;6730;46.248;6.930;2022-10-22T06:17:40;12.40;99.90
13322;DHT22;6730;46.248;6.930;2022-10-22T06:20:07;12.30;99.90
13322;DHT22;6730;46.248;6.930;2022-10-22T06:22:33;12.40;99.90
13322;DHT22;6730;46.248;6.930;2022-10-22T06:24:58;12.50;99.90
13322;DHT22;6730;46.248;6.930;2022-10-22T06:27:24;12.40;99.90
13322;DHT22;6730;46.248;6.930;2022-10-22T06:29:49;12.40;99.90
13322;DHT22;6730;46.248;6.930;2022-10-22T06:32:15;12.20;99.90
13322;DHT22;6730;46.248;6.930;2022-10-22T06:34:41;12.00;99.90
13322;DHT22;6730;46.248;6.930;2022-10-22T06:37:08;12.00;99.90
13322;DHT22;6730;46.248;6.930;2022-10-22T06:39:34;12.00;99.90
13322;DHT22;6730;46.248;6.930;2022-10-22T06:41:59;11.90;99.90
13322;DHT22;6730;46.248;6.930;2022-10-22T06:44:25;11.90;99.90
13322;DHT22;6730;46.248;6.930;2022-10-22T06:46:51;11.90;99.90
13322;DHT22;6730;46.248;6.930;2022-10-22T06:49:18;12.00;99.90
13322;DHT22;6730;46.248;6.930;2022-10-22T06:51:44;12.20;99.90
13322;DHT22;6730;46.248;6.930;2022-10-22T06:54:10;12.30;99.90
13322;DHT22;6730;46.248;6.930;2022-10-22T06:56:36;12.70;99.90
13322;DHT22;6730;46.248;6.930;2022-10-22T06:59:02;13.00;99.90
13322;DHT22;6730;46.248;6.930;2022-10-22T07:01:30;12.90;99.90
13322;DHT22;6730;46.248;6.930;2022-10-22T07:03:57;12.80;99.90
13322;DHT22;6730;46.248;6.930;2022-10-22T07:06:27;12.50;99.90
13322;DHT22;6730;46.248;6.930;2022-10-22T07:08:54;12.40;99.90
13322;DHT22;6730;46.248;6.930;2022-10-22T07:11:26;12.70;99.90
13322;DHT22;6730;46.248;6.930;2022-10-22T07:13:54;12.90;99.90
13322;DHT22;6730;46.248;6.930;2022-10-22T07:16:20;13.00;99.90
13322;DHT22;6730;46.248;6.930;2022-10-22T07:18:46;12.70;99.90
13322;DHT22;6730;46.248;6.930;2022-10-22T07:21:13;12.60;99.90
13322;DHT22;6730;46.248;6.930;2022-10-22T07:23:39;12.60;99.90
13322;DHT22;6730;46.248;6.930;2022-10-22T07:26:06;12.60;99.90
13322;DHT22;6730;46.248;6.930;2022-10-22T07:28:34;12.80;99.90
13322;DHT22;6730;46.248;6.930;2022-10-22T07:31:01;13.00;99.90
13322;DHT22;6730;46.248;6.930;2022-10-22T07:33:26;13.50;99.90
13322;DHT22;6730;46.248;6.930;2022-10-22T07:36:04;14.30;99.90
13322;DHT22;6730;46.248;6.930;2022-10-22T07:38:30;15.50;99.90
13322;DHT22;6730;46.248;6.930;2022-10-22T07:40:56;16.40;99.90
13322;DHT22;6730;46.248;6.930;2022-10-22T07:43:22;17.20;99.90
13322;DHT22;6730;46.248;6.930;2022-10-22T07:45:47;17.20;99.90
13322;DHT22;6730;46.248;6.930;2022-10-22T07:48:13;17.00;99.90
13322;DHT22;6730;46.248;6.930;2022-10-22T07:50:39;17.10;99.90
13322;DHT22;6730;46.248;6.930;2022-10-22T07:53:05;17.20;99.90
13322;DHT22;6730;46.248;6.930;2022-10-22T07:55:30;17.50;99.90
13322;DHT22;6730;46.248;6.930;2022-10-22T07:57:56;17.90;99.90
13322;DHT22;6730;46.248;6.930;2022-10-22T08:00:22;18.30;99.90
13322;DHT22;6730;46.248;6.930;2022-10-22T08:02:47;18.60;99.90
13322;DHT22;6730;46.248;6.930;2022-10-22T08:05:13;18.80;99.90
13322;DHT22;6730;46.248;6.930;2022-10-22T08:07:39;19.20;99.90
13322;DHT22;6730;46.248;6.930;2022-10-22T08:10:05;20.30;99.90
13322;DHT22;6730;46.248;6.930;2022-10-22T08:12:31;20.60;99.90
13322;DHT22;6730;46.248;6.930;2022-10-22T08:14:57;20.90;99.90
13322;DHT22;6730;46.248;6.930;2022-10-22T08:17:22;21.00;99.90
13322;DHT22;6730;46.248;6.930;2022-10-22T08:19:48;21.30;99.90
13322;DHT22;6730;46.248;6.930;2022-10-22T08:22:14;20.80;99.90
13322;DHT22;6730;46.248;6.930;2022-10-22T08:24:39;21.20;99.90
13322;DHT22;6730;46.248;6.930;2022-10-22T08:27:05;20.60;99.90
13322;DHT22;6730;46.248;6.930;2022-10-22T08:29:31;20.50;99.90
13322;DHT22;6730;46.248;6.930;2022-10-22T08:31:57;20.70;99.90
13322;DHT22;6730;46.248;6.930;2022-10-22T08:34:22;20.40;99.90
13322;DHT22;6730;46.248;6.930;2022-10-22T08:36:48;21.10;99.90
13322;DHT22;6730;46.248;6.930;2022-10-22T08:39:14;21.30;99.90
13322;DHT22;6730;46.248;6.930;2022-10-22T08:50:00;22.20;99.90
13322;DHT22;6730;46.248;6.930;2022-10-22T08:52:26;21.90;99.90
13322;DHT22;6730;46.248;6.930;2022-10-22T08:54:57;21.60;99.90
13322;DHT22;6730;46.248;6.930;2022-10-22T08:57:45;21.20;99.90
13322;DHT22;6730;46.248;6.930;2022-10-22T09:00:19;20.00;99.90
13322;DHT22;6730;46.248;6.930;2022-10-22T09:08:21;20.70;99.90
13322;DHT22;6730;46.248;6.930;2022-10-22T09:10:52;20.00;99.90
13322;DHT22;6730;46.248;6.930;2022-10-22T09:13:21;20.00;99.90
13322;DHT22;6730;46.248;6.930;2022-10-22T09:16:01;20.30;99.90
13322;DHT22;6730;46.248;6.930;2022-10-22T09:18:41;20.50;99.90
13322;DHT22;6730;46.248;6.930;2022-10-22T09:23:53;20.50;99.90
13322;DHT22;6730;46.248;6.930;2022-10-22T09:26:20;21.00;99.90
13322;DHT22;6730;46.248;6.930;2022-10-22T09:28:49;20.00;99.90
13322;DHT22;6730;46.248;6.930;2022-10-22T09:31:15;20.60;99.90
13322;DHT22;6730;46.248;6.930;2022-10-22T09:33:43;20.30;99.90
13322;DHT22;6730;46.248;6.930;2022-10-22T09:36:16;20.80;99.90
13322;DHT22;6730;46.248;6.930;2022-10-22T09:38:50;21.60;99.90
13322;DHT22;6730;46.248;6.930;2022-10-22T09:41:25;21.00;99.90
13322;DHT22;6730;46.248;6.930;2022-10-22T09:43:54;20.30;99.90
13322;DHT22;6730;46.248;6.930;2022-10-22T09:46:30;20.90;99.90
13322;DHT22;6730;46.248;6.930;2022-10-22T09:49:09;21.10;99.90
13322;DHT22;6730;46.248;6.930;2022-10-22T09:57:02;20.90;99.90
13322;DHT22;6730;46.248;6.930;2022-10-22T09:59:30;20.80;99.90
13322;DHT22;6730;46.248;6.930;2022-10-22T10:02:11;21.00;99.90
13322;DHT22;6730;46.248;6.930;2022-10-22T10:04:45;20.20;99.90
13322;DHT22;6730;46.248;6.930;2022-10-22T10:07:20;19.90;99.90
13322;DHT22;6730;46.248;6.930;2022-10-22T10:09:47;20.50;99.90
13322;DHT22;6730;46.248;6.930;2022-10-22T10:31:43;19.90;99.90
13322;DHT22;6730;46.248;6.930;2022-10-22T10:34:27;20.40;99.90
13322;DHT22;6730;46.248;6.930;2022-10-22T10:37:25;20.90;99.90
13322;DHT22;6730;46.248;6.930;2022-10-22T10:42:34;20.50;99.90
13322;DHT22;6730;46.248;6.930;2022-10-22T10:47:55;20.80;99.90
13322;DHT22;6730;46.248;6.930;2022-10-22T10:58:29;20.40;99.90
13322;DHT22;6730;46.248;6.930;2022-10-22T11:01:00;21.00;99.90
13322;DHT22;6730;46.248;6.930;2022-10-22T11:03:50;20.10;99.90
13322;DHT22;6730;46.248;6.930;2022-10-22T11:06:19;20.20;99.90
13322;DHT22;6730;46.248;6.930;2022-10-22T11:09:02;20.50;99.90
13322;DHT22;6730;46.248;6.930;2022-10-22T11:11:39;20.20;99.90
13322;DHT22;6730;46.248;6.930;2022-10-22T11:14:12;19.20;99.90
13322;DHT22;6730;46.248;6.930;2022-10-22T11:16:50;19.70;99.90
13322;DHT22;6730;46.248;6.930;2022-10-22T11:19:42;20.20;99.90
13322;DHT22;6730;46.248;6.930;2022-10-22T11:22:19;19.80;99.90
13322;DHT22;6730;46.248;6.930;2022-10-22T11:28:12;20.10;99.90
13322;DHT22;6730;46.248;6.930;2022-10-22T11:30:41;21.30;99.90
13322;DHT22;6730;46.248;6.930;2022-10-22T11:33:14;21.40;99.90
13322;DHT22;6730;46.248;6.930;2022-10-22T11:35:45;21.20;99.90
13322;DHT22;6730;46.248;6.930;2022-10-22T11:38:15;21.00;99.90
13322;DHT22;6730;46.248;6.930;2022-10-22T11:41:04;20.60;99.90
13322;DHT22;6730;46.248;6.930;2022-10-22T11:43:33;20.30;99.90
13322;DHT22;6730;46.248;6.930;2022-10-22T11:49:13;20.20;99.90
13322;DHT22;6730;46.248;6.930;2022-10-22T11:51:42;19.80;99.90
13322;DHT22;6730;46.248;6.930;2022-10-22T11:57:26;20.00;99.90
13322;DHT22;6730;46.248;6.930;2022-10-22T11:59:57;19.90;99.90
13322;DHT22;6730;46.248;6.930;2022-10-22T12:04:54;19.50;99.90
13322;DHT22;6730;46.248;6.930;2022-10-22T12:16:39;19.10;99.90
13322;DHT22;6730;46.248;6.930;2022-10-22T12:19:17;19.00;99.90
13322;DHT22;6730;46.248;6.930;2022-10-22T12:21:53;19.40;99.90
13322;DHT22;6730;46.248;6.930;2022-10-22T12:24:21;19.60;99.90
13322;DHT22;6730;46.248;6.930;2022-10-22T12:26:50;19.30;99.90
13322;DHT22;6730;46.248;6.930;2022-10-22T12:29:18;19.20;99.90
13322;DHT22;6730;46.248;6.930;2022-10-22T12:31:45;19.00;99.90
13322;DHT22;6730;46.248;6.930;2022-10-22T12:34:15;19.10;99.90
13322;DHT22;6730;46.248;6.930;2022-10-22T12:36:42;19.00;99.90
13322;DHT22;6730;46.248;6.930;2022-10-22T12:39:24;18.80;99.90
13322;DHT22;6730;46.248;6.930;2022-10-22T12:44:59;18.70;99.90
13322;DHT22;6730;46.248;6.930;2022-10-22T12:47:24;18.70;99.90
13322;DHT22;6730;46.248;6.930;2022-10-22T12:49:50;18.50;99.90
13322;DHT22;6730;46.248;6.930;2022-10-22T12:52:19;18.50;99.90
13322;DHT22;6730;46.248;6.930;2022-10-22T12:54:47;18.30;99.90
13322;DHT22;6730;46.248;6.930;2022-10-22T12:57:16;18.40;99.90
13322;DHT22;6730;46.248;6.930;2022-10-22T12:59:51;18.50;99.90
13322;DHT22;6730;46.248;6.930;2022-10-22T13:02:24;18.50;99.90
13322;DHT22;6730;46.248;6.930;2022-10-22T13:07:54;18.50;99.90
13322;DHT22;6730;46.248;6.930;2022-10-22T13:10:32;18.40;99.90
13322;DHT22;6730;46.248;6.930;2022-10-22T13:12:58;18.50;99.90
13322;DHT22;6730;46.248;6.930;2022-10-22T13:20:58;18.90;99.90
13322;DHT22;6730;46.248;6.930;2022-10-22T13:23:29;19.00;99.90
13322;DHT22;6730;46.248;6.930;2022-10-22T13:26:15;19.20;99.90
13322;DHT22;6730;46.248;6.930;2022-10-22T13:28:49;19.60;99.90
13322;DHT22;6730;46.248;6.930;2022-10-22T13:31:22;18.80;99.90
13322;DHT22;6730;46.248;6.930;2022-10-22T13:33:56;18.20;99.90
13322;DHT22;6730;46.248;6.930;2022-10-22T13:36:23;17.80;99.90
13322;DHT22;6730;46.248;6.930;2022-10-22T13:38:49;17.50;99.90
13322;DHT22;6730;46.248;6.930;2022-10-22T13:41:27;17.40;99.90
13322;DHT22;6730;46.248;6.930;2022-10-22T13:43:53;17.30;99.90
13322;DHT22;6730;46.248;6.930;2022-10-22T13:46:20;17.30;99.90
13322;DHT22;6730;46.248;6.930;2022-10-22T13:48:47;17.30;99.90
13322;DHT22;6730;46.248;6.930;2022-10-22T13:51:17;17.30;99.90
13322;DHT22;6730;46.248;6.930;2022-10-22T13:53:44;17.30;99.90
13322;DHT22;6730;46.248;6.930;2022-10-22T13:56:13;17.40;99.90
13322;DHT22;6730;46.248;6.930;2022-10-22T13:58:40;17.20;99.90
13322;DHT22;6730;46.248;6.930;2022-10-22T14:01:19;17.40;99.90
13322;DHT22;6730;46.248;6.930;2022-10-22T14:03:46;17.20;99.90
13322;DHT22;6730;46.248;6.930;2022-10-22T14:06:13;17.30;99.90
13322;DHT22;6730;46.248;6.930;2022-10-22T14:08:40;17.50;99.90
13322;DHT22;6730;46.248;6.930;2022-10-22T14:11:09;17.60;99.90
13322;DHT22;6730;46.248;6.930;2022-10-22T14:13:39;17.60;99.90
13322;DHT22;6730;46.248;6.930;2022-10-22T14:16:18;17.40;99.90
13322;DHT22;6730;46.248;6.930;2022-10-22T14:18:44;17.30;99.90
13322;DHT22;6730;46.248;6.930;2022-10-22T14:21:10;17.10;99.90
13322;DHT22;6730;46.248;6.930;2022-10-22T14:23:39;17.00;99.90
13322;DHT22;6730;46.248;6.930;2022-10-22T14:26:05;17.10;99.90
13322;DHT22;6730;46.248;6.930;2022-10-22T14:28:33;17.40;99.90
13322;DHT22;6730;46.248;6.930;2022-10-22T14:30:59;17.40;99.90
13322;DHT22;6730;46.248;6.930;2022-10-22T14:33:30;17.50;99.90
13322;DHT22;6730;46.248;6.930;2022-10-22T14:36:00;17.40;99.90
13322;DHT22;6730;46.248;6.930;2022-10-22T14:38:27;17.40;99.90
13322;DHT22;6730;46.248;6.930;2022-10-22T14:40:52;17.80;99.90
13322;DHT22;6730;46.248;6.930;2022-10-22T14:43:19;18.20;99.90
13322;DHT22;6730;46.248;6.930;2022-10-22T14:45:46;18.50;99.90
13322;DHT22;6730;46.248;6.930;2022-10-22T14:48:12;18.70;99.90
13322;DHT22;6730;46.248;6.930;2022-10-22T14:50:44;18.70;99.90
13322;DHT22;6730;46.248;6.930;2022-10-22T14:53:11;18.40;99.90
13322;DHT22;6730;46.248;6.930;2022-10-22T14:55:38;18.30;99.90
13322;DHT22;6730;46.248;6.930;2022-10-22T14:58:04;18.20;99.90
13322;DHT22;6730;46.248;6.930;2022-10-22T15:00:30;18.20;99.90
13322;DHT22;6730;46.248;6.930;2022-10-22T15:02:56;18.30;99.90
13322;DHT22;6730;46.248;6.930;2022-10-22T15:05:23;18.00;99.90
13322;DHT22;6730;46.248;6.930;2022-10-22T15:07:49;17.70;99.90
13322;DHT22;6730;46.248;6.930;2022-10-22T15:10:15;17.60;99.90
13322;DHT22;6730;46.248;6.930;2022-10-22T15:12:41;17.50;99.90
13322;DHT22;6730;46.248;6.930;2022-10-22T15:15:06;17.70;99.90
13322;DHT22;6730;46.248;6.930;2022-10-22T15:17:32;17.80;99.90
13322;DHT22;6730;46.248;6.930;2022-10-22T15:19:58;17.70;99.90
13322;DHT22;6730;46.248;6.930;2022-10-22T15:22:29;17.30;99.90
13322;DHT22;6730;46.248;6.930;2022-10-22T15:25:03;17.40;99.90
13322;DHT22;6730;46.248;6.930;2022-10-22T15:27:29;17.50;99.90
13322;DHT22;6730;46.248;6.930;2022-10-22T15:29:55;17.50;99.90
13322;DHT22;6730;46.248;6.930;2022-10-22T15:32:26;17.50;99.90
13322;DHT22;6730;46.248;6.930;2022-10-22T15:34:54;17.50;99.90
13322;DHT22;6730;46.248;6.930;2022-10-22T15:37:21;17.50;99.90
13322;DHT22;6730;46.248;6.930;2022-10-22T15:39:46;17.40;99.90
13322;DHT22;6730;46.248;6.930;2022-10-22T15:42:12;17.20;99.90
13322;DHT22;6730;46.248;6.930;2022-10-22T15:44:39;17.20;99.90
13322;DHT22;6730;46.248;6.930;2022-10-22T15:47:05;17.20;99.90
13322;DHT22;6730;46.248;6.930;2022-10-22T15:49:34;17.10;99.90
13322;DHT22;6730;46.248;6.930;2022-10-22T15:52:00;16.90;99.90
13322;DHT22;6730;46.248;6.930;2022-10-22T15:54:27;16.90;99.90
13322;DHT22;6730;46.248;6.930;2022-10-22T15:56:55;16.60;99.90
13322;DHT22;6730;46.248;6.930;2022-10-22T15:59:21;16.80;99.90
13322;DHT22;6730;46.248;6.930;2022-10-22T16:01:47;16.70;99.90
13322;DHT22;6730;46.248;6.930;2022-10-22T16:04:14;16.70;99.90
13322;DHT22;6730;46.248;6.930;2022-10-22T16:06:45;16.60;99.90
13322;DHT22;6730;46.248;6.930;2022-10-22T16:09:16;16.50;99.90
13322;DHT22;6730;46.248;6.930;2022-10-22T16:11:43;16.30;99.90
13322;DHT22;6730;46.248;6.930;2022-10-22T16:14:11;16.20;99.90
13322;DHT22;6730;46.248;6.930;2022-10-22T16:16:37;16.10;99.90
13322;DHT22;6730;46.248;6.930;2022-10-22T16:19:08;16.30;99.90
13322;DHT22;6730;46.248;6.930;2022-10-22T16:21:35;16.20;99.90
13322;DHT22;6730;46.248;6.930;2022-10-22T16:24:00;16.10;99.90
13322;DHT22;6730;46.248;6.930;2022-10-22T16:26:26;16.20;99.90
13322;DHT22;6730;46.248;6.930;2022-10-22T16:28:52;16.10;99.90
13322;DHT22;6730;46.248;6.930;2022-10-22T16:31:17;16.10;99.90
13322;DHT22;6730;46.248;6.930;2022-10-22T16:33:44;16.20;99.90
13322;DHT22;6730;46.248;6.930;2022-10-22T16:36:15;16.20;99.90
13322;DHT22;6730;46.248;6.930;2022-10-22T16:38:43;16.10;99.90
13322;DHT22;6730;46.248;6.930;2022-10-22T16:41:14;16.10;99.90
13322;DHT22;6730;46.248;6.930;2022-10-22T16:43:44;16.10;99.90
13322;DHT22;6730;46.248;6.930;2022-10-22T16:46:13;15.90;99.90
13322;DHT22;6730;46.248;6.930;2022-10-22T16:48:46;15.70;99.90
13322;DHT22;6730;46.248;6.930;2022-10-22T16:51:15;15.80;99.90
13322;DHT22;6730;46.248;6.930;2022-10-22T16:53:41;16.00;99.90
13322;DHT22;6730;46.248;6.930;2022-10-22T16:56:08;15.90;99.90
13322;DHT22;6730;46.248;6.930;2022-10-22T16:58:35;15.80;99.90
13322;DHT22;6730;46.248;6.930;2022-10-22T17:01:05;16.00;99.90
13322;DHT22;6730;46.248;6.930;2022-10-22T17:03:31;16.00;99.90
13322;DHT22;6730;46.248;6.930;2022-10-22T17:06:00;16.00;99.90
13322;DHT22;6730;46.248;6.930;2022-10-22T17:08:26;15.80;99.90
13322;DHT22;6730;46.248;6.930;2022-10-22T17:10:52;15.40;99.90
13322;DHT22;6730;46.248;6.930;2022-10-22T17:13:18;15.50;99.90
13322;DHT22;6730;46.248;6.930;2022-10-22T17:15:43;15.50;99.90
13322;DHT22;6730;46.248;6.930;2022-10-22T17:18:09;15.60;99.90
13322;DHT22;6730;46.248;6.930;2022-10-22T17:20:39;15.70;99.90
13322;DHT22;6730;46.248;6.930;2022-10-22T17:23:04;15.70;99.90
13322;DHT22;6730;46.248;6.930;2022-10-22T17:25:43;15.70;99.90
13322;DHT22;6730;46.248;6.930;2022-10-22T17:28:12;15.60;99.90
13322;DHT22;6730;46.248;6.930;2022-10-22T17:30:38;15.60;99.90
13322;DHT22;6730;46.248;6.930;2022-10-22T17:33:06;15.60;99.90
13322;DHT22;6730;46.248;6.930;2022-10-22T17:35:34;15.60;99.90
13322;DHT22;6730;46.248;6.930;2022-10-22T17:38:01;15.50;99.90
13322;DHT22;6730;46.248;6.930;2022-10-22T17:40:26;15.40;99.90
13322;DHT22;6730;46.248;6.930;2022-10-22T17:42:52;15.20;99.90